METAR stanice u blizini

 

LYBE - Beograd / Surčin, Srbija
Ažurirano: 04/03/2024 04:30
Vedro
Vedro
 Pravac vetra IJI
Vetar: IJI 15 km/h
Temperatura: 6°C
Osećaj hladnoće: 3°C
Tačka rose: 3°C
Vlažnost: 81%
Pritisak: 1009 hPa
Pregled: Vedro
Vidljivost: greater than 10 km
2024/03/04 03:30 LYBE 040330Z 12008KT CAVOK 06/03 Q1009 NOSIG
LYBT - Beograd / Batajnica, Srbija
Ažurirano: 04/03/2024 04:30
Vedro
Vedro
 Pravac vetra I
Vetar: I 15 km/h
Temperatura: 6°C
Osećaj hladnoće: 3°C
Tačka rose: 5°C
Vlažnost: 93%
Pritisak: 1010 hPa
Pregled: Vedro
Vidljivost: greater than 10 km
2024/03/04 03:30 LYBT 040330Z 10008KT CAVOK 06/05 Q1010 NOSIG
LYVR - Vršac, Srbija
Ažurirano: 04/03/2024 04:30
Vedro
Vedro
 Pravac vetra JI
Vetar: JI 46 km/h
Temperatura: 10°C
Osećaj hladnoće: 6°C
Tačka rose: 4°C
Vlažnost: 67%
Pritisak: 1010 hPa
Pregled: Vedro
Vidljivost: greater than 10 km
2024/03/04 03:30 LYVR 040330Z AUTO 14025KT 110V170 CAVOK 10/04 Q1010
 
LYKV - Lađevci, Srbija
Ažurirano: 04/03/2024 04:30
Vedro
Vedro
 Pravac vetra SSZ
Vetar: SSZ 2 km/h
Temperatura: 0°C
Tačka rose: 0°C
Vlažnost: 100%
Pritisak: 1011 hPa
Pregled: Vedro
Vidljivost: greater than 10 km
2024/03/04 03:30 LYKV 040330Z 34001KT CAVOK M00/M00 Q1011 NOSIG
LYNI - Niš, Srbija
Ažurirano: 04/03/2024 04:30
Vedro
Vedro
 Pravac vetra JI
Vetar: JI 11 km/h
Temperatura: 9°C
Osećaj hladnoće: 7°C
Tačka rose: 6°C
Vlažnost: 82%
Pritisak: 1012 hPa
Pregled: Vedro
Vidljivost: greater than 10 km
2024/03/04 03:30 LYNI 040330Z 13006KT CAVOK 09/06 Q1012 NOSIG
BKPR - Priština, Srbija
Ažurirano: 04/03/2024 04:30
Vedro
Vedro
 Pravac vetra varies
Vetar: varies 2 km/h
Temperatura: 1°C
Tačka rose: 1°C
Vlažnost: 100%
Pritisak: 1012 hPa
Pregled: Vedro
Vidljivost: greater than 10 km
2024/03/04 03:30 BKPR 040330Z VRB01KT CAVOK 01/01 Q1012 NOSIG
 
LHPP - Pecs / Pogany, Hungary
Ažurirano: 04/03/2024 04:15
Vedro
Vedro
 Pravac vetra SI
Vetar: SI 4 km/h
Temperatura: 6°C
Tačka rose: 4°C
Vlažnost: 87%
Pritisak: 1008 hPa
Pregled: Vedro
Vidljivost: greater than 10 km
2024/03/04 03:15 LHPP 040315Z AUTO 04002KT CAVOK 06/04 Q1008
LHUD - Szeged, Hungary
Ažurirano: 04/07/2019 01:45
NOT Current
Vedro
Vedro
 Pravac vetra S
Vetar: S 7 km/h
Temperatura: 18°C
Tačka rose: 13°C
Vlažnost: 73%
Pritisak: 1019 hPa
Pregled: Vedro
Vidljivost: greater than 10 km
2019/07/03 23:45 LHUD 032345Z 35004KT CAVOK 18/13 Q1019
LRTR - Timisoara, Romania
Ažurirano: 04/03/2024 04:30
Vedro
Vedro
 Pravac vetra IJI
Vetar: IJI 13 km/h
Temperatura: 5°C
Osećaj hladnoće: 2°C
Tačka rose: 3°C
Vlažnost: 87%
Pritisak: 1010 hPa
Pregled: Vedro
Vidljivost: greater than 10 km
2024/03/04 03:30 LRTR 040330Z 11007KT CAVOK 05/03 Q1010
 
LRCV - Craiova, Romania
Ažurirano: 04/03/2024 04:30
Vedro
Vedro
 Pravac vetra ISI
Vetar: ISI 13 km/h
Temperatura: 4°C
Osećaj hladnoće: 1°C
Tačka rose: 2°C
Vlažnost: 87%
Pritisak: 1013 hPa
Pregled: Vedro
Vidljivost: greater than 10 km
2024/03/04 03:30 LRCV 040330Z 06007KT CAVOK 04/02 Q1013
LBSF - Sofia, Bulgaria
Ažurirano: 04/03/2024 04:30
Vedro
Vedro
 Pravac vetra varies
Vetar: varies 4 km/h
Temperatura: 2°C
Tačka rose: 1°C
Vlažnost: 93%
Pritisak: 1014 hPa
Oblaci: Vedro
Vidljivost: 9 km
2024/03/04 03:30 LBSF 040330Z AUTO VRB02KT 9000 NCD 02/01 Q1014 TEMPO 3000 BR
LWSK - Skoplje, Makedonija
Ažurirano: 04/03/2024 04:50
Partly Cloudy
Partly Cloudy
 Pravac vetra S
Vetar: S 6 km/h
Temperatura: 6°C
Tačka rose: 4°C
Vlažnost: 87%
Pritisak: 1013 hPa
Oblaci: Partly Cloudy
Vidljivost: 10 km
Cloud details: Partly Cloudy 274 m
2024/03/04 03:50 LWSK 040350Z 01003KT 9999 SCT009 06/04 Q1013 NOSIG
 
LYPG - Podgorica, Crna Gora
Ažurirano: 04/03/2024 04:30
Mostly Cloudy
Mostly Cloudy
 Pravac vetra calm
Vetar: Tišina
Temperatura: 9°C
Tačka rose: 8°C
Vlažnost: 94%
Pritisak: 1012 hPa
Oblaci: Mostly Cloudy
Vidljivost: 10 km
Cloud details: Partly Cloudy 823 m
Mostly Cloudy 2195 m
2024/03/04 03:30 LYPG 040330Z 00000KT 9999 SCT027 BKN072 09/08 Q1012 NOSIG
LQSA - Sarajevo, Bosna i Hercegovina
Ažurirano: 04/03/2024 04:30
Vedro
Vedro
 Pravac vetra varies
Vetar: varies 4 km/h
Temperatura: 2°C
Tačka rose: 1°C
Vlažnost: 93%
Pritisak: 1009 hPa
Pregled: Vedro
Vidljivost: greater than 10 km
2024/03/04 03:30 LQSA 040330Z VRB02KT CAVOK 02/01 Q1009
LDOS - Osijek, Hrvatksa
Ažurirano: 04/03/2024 04:30
Vedro
Vedro
 Pravac vetra JJI
Vetar: JJI 7 km/h
Temperatura: 3°C
Osećaj hladnoće: 1°C
Tačka rose: 2°C
Vlažnost: 93%
Pritisak: 1008 hPa
Pregled: Vedro
Vidljivost: greater than 10 km
2024/03/04 03:30 LDOS 040330Z 16004KT CAVOK 03/02 Q1008